Daikoku — JD3247 — position and weather

sailwx.info

Track history (hours):
 
Tides and Currents Weather Stations Pressure Air Temp Water Temp Dewpoint Dewpoint Depression Visibility Wind Speed Wind Dir Waves Ship Positions

Daikoku

Last reported at 2018-Apr-20 04:33 UTC. Time now 2018-Apr-21 09:54 UTC.
Position N 40°33' E 141°30'.

Length 95 m; draft 3 m.

Type: Cargo ship. MMSI: 431003009.

Date/timePositionNaut miles runAvg speedWind from/ knotsBaromVisibWave heightAir tempDewpointWater temp
2018-Apr-20 04:33N 40°33' E 141°30'0 0.0
2018-Apr-20 04:17N 40°33' E 141°30'0 0.0
2018-Apr-20 03:07N 40°33' E 141°30'0 0.0
2018-Apr-20 03:00N 40°33' E 141°30'34210.5
2018-Apr-18 18:23N 34°57' E 140°07'19 8.9
2018-Apr-18 16:15N 34°57' E 139°44'311.8
2018-Apr-18 15:59N 35°00' E 139°43'611.7
2018-Apr-18 15:30N 35°06' E 139°44'612.6
2018-Apr-18 15:01N 35°12' E 139°46'612.6
2018-Apr-18 14:31N 35°18' E 139°44'611.9
2018-Apr-18 14:01N 35°24' E 139°43'612.7
2018-Apr-18 13:30N 35°29' E 139°48'510.6
2018-Apr-18 13:01N 35°34' E 139°49'3 5.9
2018-Apr-18 12:30N 35°36' E 139°47'0 0.0
2018-Apr-18 12:00N 35°36' E 139°47'0 0.0
2018-Apr-18 11:30N 35°36' E 139°47'0 0.0
2018-Apr-18 11:00N 35°36' E 139°47'0 0.0
2018-Apr-18 10:26N 35°36' E 139°47'0 0.0
2018-Apr-18 10:00N 35°36' E 139°47'0 0.0
2018-Apr-18 09:30N 35°36' E 139°47'4 8.2
2018-Apr-18 09:01N 35°33' E 139°51'5 8.9
2018-Apr-18 08:30N 35°29' E 139°48'510.2
2018-Apr-18 08:01N 35°27' E 139°43'2 3.9
2018-Apr-18 07:31N 35°26' E 139°41'0 0.0
2018-Apr-18 07:00N 35°26' E 139°41'0 0.0
2018-Apr-18 06:30N 35°26' E 139°41'0 0.0
2018-Apr-18 06:01N 35°26' E 139°41'0 0.0
2018-Apr-18 05:31N 35°26' E 139°41'0 0.0
2018-Apr-18 05:00N 35°26' E 139°41'0 0.0
2018-Apr-18 04:31N 35°26' E 139°41'0 0.1
2018-Apr-18 04:01N 35°26' E 139°41'1 1.5
2018-Apr-18 03:30N 35°27' E 139°41'3 6.9
2018-Apr-18 03:00N 35°23' E 139°41'1 1.9
2018-Apr-18 02:31N 35°24' E 139°41'0 0.0
2018-Apr-18 02:01N 35°24' E 139°41'0 0.0
2018-Apr-18 01:31N 35°24' E 139°41'0 0.0
2018-Apr-18 01:01N 35°24' E 139°41'0 0.0
2018-Apr-18 00:30N 35°24' E 139°41'0 0.0
2018-Apr-18 00:00N 35°24' E 139°41'0 0.0
2018-Apr-17 23:31N 35°24' E 139°41'3 5.6
2018-Apr-17 23:00N 35°22' E 139°43'0 0.3
2018-Apr-17 22:31N 35°22' E 139°43'0 0.0
2018-Apr-17 22:00N 35°22' E 139°43'0 0.0
2018-Apr-17 21:31N 35°22' E 139°43'0 0.0
2018-Apr-17 21:01N 35°22' E 139°43'0 0.0
2018-Apr-17 20:30N 35°22' E 139°43'0 0.0
2018-Apr-17 20:01N 35°22' E 139°43'0 0.0
2018-Apr-17 19:30N 35°22' E 139°43'0 0.0
2018-Apr-17 19:01N 35°22' E 139°43'0 0.0
2018-Apr-17 18:30N 35°22' E 139°43'0 0.1
2018-Apr-17 18:01N 35°22' E 139°43'0 0.1
2018-Apr-17 17:30N 35°22' E 139°43'0 0.0
2018-Apr-17 17:01N 35°22' E 139°43'0 0.0
2018-Apr-17 16:31N 35°22' E 139°43'0 0.0
2018-Apr-17 16:01N 35°22' E 139°43'0 0.1
2018-Apr-17 15:31N 35°22' E 139°43'0 0.1
2018-Apr-17 15:00N 35°22' E 139°43'0 0.0
2018-Apr-17 14:31N 35°22' E 139°43'0 0.0
2018-Apr-17 14:01N 35°22' E 139°43'0 0.0
2018-Apr-17 13:31N 35°22' E 139°43'0 0.0
2018-Apr-17 13:00N 35°22' E 139°43'0 0.0
2018-Apr-17 12:31N 35°22' E 139°43'0 0.0
2018-Apr-17 12:01N 35°22' E 139°43'0 0.0
2018-Apr-17 11:31N 35°22' E 139°43'0 0.0
2018-Apr-17 11:00N 35°22' E 139°43'0 0.1
2018-Apr-17 10:31N 35°22' E 139°43'0 0.0
2018-Apr-17 10:00N 35°22' E 139°43'0 0.0
2018-Apr-17 09:30N 35°22' E 139°43'0 0.0
2018-Apr-17 09:01N 35°22' E 139°43'0 0.0
2018-Apr-17 08:31N 35°22' E 139°43'0 0.0
2018-Apr-17 08:01N 35°22' E 139°43'0 0.0
2018-Apr-17 07:31N 35°22' E 139°43'0 0.0
2018-Apr-17 07:00N 35°22' E 139°43'0 0.0
2018-Apr-17 06:31N 35°22' E 139°43'0 0.1
2018-Apr-17 06:01N 35°22' E 139°43'0 0.0
2018-Apr-17 05:30N 35°22' E 139°43'0 0.0
2018-Apr-17 05:00N 35°22' E 139°43'0 0.0
2018-Apr-17 04:30N 35°22' E 139°43'0 0.1
2018-Apr-17 04:00N 35°22' E 139°43'0 0.0
2018-Apr-17 03:30N 35°22' E 139°43'0 0.1
2018-Apr-17 03:01N 35°22' E 139°43'0 0.0
2018-Apr-17 02:31N 35°22' E 139°43'0 0.0
2018-Apr-17 02:01N 35°22' E 139°43'0 0.2
2018-Apr-17 01:30N 35°22' E 139°43'5 9.6
2018-Apr-17 01:00N 35°18' E 139°45'510.1
2018-Apr-17 00:30N 35°13' E 139°47'611.0
2018-Apr-17 00:00N 35°07' E 139°46'611.8
2018-Apr-16 23:30N 35°02' E 139°44'710.7
2018-Apr-16 22:52N 34°55' E 139°46'11 8.9
2018-Apr-16 21:34N 34°53' E 139°59'210.7
2018-Apr-16 21:23N 34°54' E 140°01'510.7
2018-Apr-16 20:57N 34°57' E 140°06'511.4
2018-Apr-16 20:30N 35°00' E 140°11'  
2018-Apr-12 00:55N 34°58' E 139°43'410.8
2018-Apr-12 00:30N 35°03' E 139°44'510.5
2018-Apr-12 00:00N 35°08' E 139°45'510.6
2018-Apr-11 23:30N 35°13' E 139°46'611.4
2018-Apr-11 23:01N 35°18' E 139°44'510.7
2018-Apr-11 22:31N 35°24' E 139°44'0 0.5
2018-Apr-11 22:00N 35°24' E 139°44'0 0.1
2018-Apr-11 21:31N 35°24' E 139°44'0 0.0
2018-Apr-11 21:01N 35°24' E 139°44'0 0.1
2018-Apr-11 20:31N 35°24' E 139°44'0 0.1
2018-Apr-11 20:00N 35°24' E 139°44'0 0.1
2018-Apr-11 19:30N 35°24' E 139°44'0 0.0
2018-Apr-11 19:00N 35°24' E 139°44'0 0.0
2018-Apr-11 18:31N 35°24' E 139°44'0 0.0
2018-Apr-11 18:01N 35°24' E 139°44'0 0.1
2018-Apr-11 17:30N 35°24' E 139°44'0 0.1
2018-Apr-11 17:01N 35°24' E 139°44'0 0.0
2018-Apr-11 16:30N 35°24' E 139°44'0 0.0
2018-Apr-11 16:01N 35°24' E 139°44'0 0.0
2018-Apr-11 15:31N 35°24' E 139°44'0 0.0
2018-Apr-11 15:00N 35°24' E 139°44'0 0.0
2018-Apr-11 14:31N 35°24' E 139°44'0 0.0
2018-Apr-11 14:01N 35°24' E 139°44'0 0.1
2018-Apr-11 13:31N 35°24' E 139°44'0 0.0
2018-Apr-11 13:00N 35°24' E 139°44'0 0.0
2018-Apr-11 12:30N 35°24' E 139°44'0 0.1
2018-Apr-11 12:01N 35°24' E 139°44'0 0.0
2018-Apr-11 11:31N 35°24' E 139°44'0 0.0
2018-Apr-11 11:01N 35°24' E 139°44'0 0.0
2018-Apr-11 10:31N 35°24' E 139°44'0 0.0
2018-Apr-11 10:00N 35°24' E 139°44'1 2.2
2018-Apr-11 09:30N 35°25' E 139°45'611.0
2018-Apr-11 09:00N 35°29' E 139°49'5 9.5
2018-Apr-11 08:31N 35°34' E 139°49'3 4.2
2018-Apr-11 07:55N 35°36' E 139°47'0 0.0
2018-Apr-11 07:30N 35°36' E 139°47'0 0.4
2018-Apr-11 06:58N 35°36' E 139°47'4 8.9
2018-Apr-11 06:30N 35°33' E 139°51'3 5.9
2018-Apr-11 06:00N 35°30' E 139°51'5 9.3
2018-Apr-11 05:30N 35°28' E 139°46'4 8.4
2018-Apr-11 05:00N 35°27' E 139°41'0 0.9
2018-Apr-11 04:30N 35°26' E 139°41'0 0.0
2018-Apr-11 04:01N 35°26' E 139°41'0 0.0
2018-Apr-11 03:30N 35°26' E 139°41'0 0.0
2018-Apr-11 03:00N 35°26' E 139°41'0 0.0
2018-Apr-11 02:30N 35°26' E 139°41'0 0.0
2018-Apr-11 02:01N 35°26' E 139°41'1 2.1
2018-Apr-11 01:30N 35°27' E 139°42'4 7.2
2018-Apr-11 01:01N 35°24' E 139°45'0 0.0
2018-Apr-11 00:30N 35°24' E 139°45'0 0.1
2018-Apr-11 00:00N 35°24' E 139°45'0 0.0
2018-Apr-10 23:30N 35°24' E 139°45'0 0.1
2018-Apr-10 23:01N 35°24' E 139°45'0 0.1
2018-Apr-10 22:30N 35°24' E 139°45'0 0.1
2018-Apr-10 22:00N 35°24' E 139°45'0 0.0
2018-Apr-10 21:31N 35°24' E 139°45'0 0.0
2018-Apr-10 21:00N 35°24' E 139°45'0 0.0
2018-Apr-10 20:31N 35°24' E 139°45'0 0.0
2018-Apr-10 20:01N 35°24' E 139°45'0 0.1
2018-Apr-10 19:31N 35°24' E 139°45'3 5.9
2018-Apr-10 19:01N 35°23' E 139°41'1 1.9
2018-Apr-10 18:31N 35°24' E 139°41'0 0.0
2018-Apr-10 18:01N 35°24' E 139°41'0 0.0
2018-Apr-10 17:30N 35°24' E 139°41'0 0.0
2018-Apr-10 17:01N 35°24' E 139°41'0 0.0
2018-Apr-10 16:31N 35°24' E 139°41'0 0.0
2018-Apr-10 16:01N 35°24' E 139°41'0 0.0
2018-Apr-10 15:31N 35°24' E 139°41'0 0.0
2018-Apr-10 15:01N 35°24' E 139°41'0 0.0
2018-Apr-10 14:31N 35°24' E 139°41'0 0.0
2018-Apr-10 14:01N 35°24' E 139°41'0 0.0
2018-Apr-10 13:31N 35°24' E 139°41'0 0.0
2018-Apr-10 13:01N 35°24' E 139°41'0 0.0
2018-Apr-10 12:31N 35°24' E 139°41'0 0.0
2018-Apr-10 12:00N 35°24' E 139°41'2 5.0
2018-Apr-10 11:31N 35°22' E 139°42'611.8
2018-Apr-10 11:00N 35°17' E 139°46'611.5
2018-Apr-10 10:31N 35°11' E 139°46'612.4
2018-Apr-10 10:00N 35°05' E 139°45'1211.1
2018-Apr-10 08:56N 34°53' E 139°47'1110.8
2018-Apr-10 07:58N 34°53' E 139°59'611.9
2018-Apr-10 07:30N 34°56' E 140°05'611.9
2018-Apr-10 07:00N 34°60' E 140°11'  
Track history (hours):
 
Tides and Currents Weather Stations Pressure Air Temp Water Temp Dewpoint Dewpoint Depression Visibility Wind Speed Wind Dir Waves Ship Positions

Daikoku

Last reported at 2018-Apr-20 04:33 UTC. Time now 2018-Apr-21 09:54 UTC.
Position N 40°33' E 141°30'.

Length 95 m; draft 3 m.

Type: Cargo ship. MMSI: 431003009.

Date/timePositionNaut miles runAvg speedWind from/ knotsBaromVisibWave heightAir tempDewpointWater temp
2018-Apr-20 04:33N 40°33' E 141°30'0 0.0
2018-Apr-20 04:17N 40°33' E 141°30'0 0.0
2018-Apr-20 03:07N 40°33' E 141°30'0 0.0
2018-Apr-20 03:00N 40°33' E 141°30'34210.5
2018-Apr-18 18:23N 34°57' E 140°07'19 8.9
2018-Apr-18 16:15N 34°57' E 139°44'311.8
2018-Apr-18 15:59N 35°00' E 139°43'611.7
2018-Apr-18 15:30N 35°06' E 139°44'612.6
2018-Apr-18 15:01N 35°12' E 139°46'612.6
2018-Apr-18 14:31N 35°18' E 139°44'611.9
2018-Apr-18 14:01N 35°24' E 139°43'612.7
2018-Apr-18 13:30N 35°29' E 139°48'510.6
2018-Apr-18 13:01N 35°34' E 139°49'3 5.9
2018-Apr-18 12:30N 35°36' E 139°47'0 0.0
2018-Apr-18 12:00N 35°36' E 139°47'0 0.0
2018-Apr-18 11:30N 35°36' E 139°47'0 0.0
2018-Apr-18 11:00N 35°36' E 139°47'0 0.0
2018-Apr-18 10:26N 35°36' E 139°47'0 0.0
2018-Apr-18 10:00N 35°36' E 139°47'0 0.0
2018-Apr-18 09:30N 35°36' E 139°47'4 8.2
2018-Apr-18 09:01N 35°33' E 139°51'5 8.9
2018-Apr-18 08:30N 35°29' E 139°48'510.2
2018-Apr-18 08:01N 35°27' E 139°43'2 3.9
2018-Apr-18 07:31N 35°26' E 139°41'0 0.0
2018-Apr-18 07:00N 35°26' E 139°41'0 0.0
2018-Apr-18 06:30N 35°26' E 139°41'0 0.0
2018-Apr-18 06:01N 35°26' E 139°41'0 0.0
2018-Apr-18 05:31N 35°26' E 139°41'0 0.0
2018-Apr-18 05:00N 35°26' E 139°41'0 0.0
2018-Apr-18 04:31N 35°26' E 139°41'0 0.1
2018-Apr-18 04:01N 35°26' E 139°41'1 1.5
2018-Apr-18 03:30N 35°27' E 139°41'3 6.9
2018-Apr-18 03:00N 35°23' E 139°41'1 1.9
2018-Apr-18 02:31N 35°24' E 139°41'0 0.0
2018-Apr-18 02:01N 35°24' E 139°41'0 0.0
2018-Apr-18 01:31N 35°24' E 139°41'0 0.0
2018-Apr-18 01:01N 35°24' E 139°41'0 0.0
2018-Apr-18 00:30N 35°24' E 139°41'0 0.0
2018-Apr-18 00:00N 35°24' E 139°41'0 0.0
2018-Apr-17 23:31N 35°24' E 139°41'3 5.6
2018-Apr-17 23:00N 35°22' E 139°43'0 0.3
2018-Apr-17 22:31N 35°22' E 139°43'0 0.0
2018-Apr-17 22:00N 35°22' E 139°43'0 0.0
2018-Apr-17 21:31N 35°22' E 139°43'0 0.0
2018-Apr-17 21:01N 35°22' E 139°43'0 0.0
2018-Apr-17 20:30N 35°22' E 139°43'0 0.0
2018-Apr-17 20:01N 35°22' E 139°43'0 0.0
2018-Apr-17 19:30N 35°22' E 139°43'0 0.0
2018-Apr-17 19:01N 35°22' E 139°43'0 0.0
2018-Apr-17 18:30N 35°22' E 139°43'0 0.1
2018-Apr-17 18:01N 35°22' E 139°43'0 0.1
2018-Apr-17 17:30N 35°22' E 139°43'0 0.0
2018-Apr-17 17:01N 35°22' E 139°43'0 0.0
2018-Apr-17 16:31N 35°22' E 139°43'0 0.0
2018-Apr-17 16:01N 35°22' E 139°43'0 0.1
2018-Apr-17 15:31N 35°22' E 139°43'0 0.1
2018-Apr-17 15:00N 35°22' E 139°43'0 0.0
2018-Apr-17 14:31N 35°22' E 139°43'0 0.0
2018-Apr-17 14:01N 35°22' E 139°43'0 0.0
2018-Apr-17 13:31N 35°22' E 139°43'0 0.0
2018-Apr-17 13:00N 35°22' E 139°43'0 0.0
2018-Apr-17 12:31N 35°22' E 139°43'0 0.0
2018-Apr-17 12:01N 35°22' E 139°43'0 0.0
2018-Apr-17 11:31N 35°22' E 139°43'0 0.0
2018-Apr-17 11:00N 35°22' E 139°43'0 0.1
2018-Apr-17 10:31N 35°22' E 139°43'0 0.0
2018-Apr-17 10:00N 35°22' E 139°43'0 0.0
2018-Apr-17 09:30N 35°22' E 139°43'0 0.0
2018-Apr-17 09:01N 35°22' E 139°43'0 0.0
2018-Apr-17 08:31N 35°22' E 139°43'0 0.0
2018-Apr-17 08:01N 35°22' E 139°43'0 0.0
2018-Apr-17 07:31N 35°22' E 139°43'0 0.0
2018-Apr-17 07:00N 35°22' E 139°43'0 0.0
2018-Apr-17 06:31N 35°22' E 139°43'0 0.1
2018-Apr-17 06:01N 35°22' E 139°43'0 0.0
2018-Apr-17 05:30N 35°22' E 139°43'0 0.0
2018-Apr-17 05:00N 35°22' E 139°43'0 0.0
2018-Apr-17 04:30N 35°22' E 139°43'0 0.1
2018-Apr-17 04:00N 35°22' E 139°43'0 0.0
2018-Apr-17 03:30N 35°22' E 139°43'0 0.1
2018-Apr-17 03:01N 35°22' E 139°43'0 0.0
2018-Apr-17 02:31N 35°22' E 139°43'0 0.0
2018-Apr-17 02:01N 35°22' E 139°43'0 0.2
2018-Apr-17 01:30N 35°22' E 139°43'5 9.6
2018-Apr-17 01:00N 35°18' E 139°45'510.1
2018-Apr-17 00:30N 35°13' E 139°47'611.0
2018-Apr-17 00:00N 35°07' E 139°46'611.8
2018-Apr-16 23:30N 35°02' E 139°44'710.7
2018-Apr-16 22:52N 34°55' E 139°46'11 8.9
2018-Apr-16 21:34N 34°53' E 139°59'210.7
2018-Apr-16 21:23N 34°54' E 140°01'510.7
2018-Apr-16 20:57N 34°57' E 140°06'511.4
2018-Apr-16 20:30N 35°00' E 140°11'  
2018-Apr-12 00:55N 34°58' E 139°43'410.8
2018-Apr-12 00:30N 35°03' E 139°44'510.5
2018-Apr-12 00:00N 35°08' E 139°45'510.6
2018-Apr-11 23:30N 35°13' E 139°46'611.4
2018-Apr-11 23:01N 35°18' E 139°44'510.7
2018-Apr-11 22:31N 35°24' E 139°44'0 0.5
2018-Apr-11 22:00N 35°24' E 139°44'0 0.1
2018-Apr-11 21:31N 35°24' E 139°44'0 0.0
2018-Apr-11 21:01N 35°24' E 139°44'0 0.1
2018-Apr-11 20:31N 35°24' E 139°44'0 0.1
2018-Apr-11 20:00N 35°24' E 139°44'0 0.1
2018-Apr-11 19:30N 35°24' E 139°44'0 0.0
2018-Apr-11 19:00N 35°24' E 139°44'0 0.0
2018-Apr-11 18:31N 35°24' E 139°44'0 0.0
2018-Apr-11 18:01N 35°24' E 139°44'0 0.1
2018-Apr-11 17:30N 35°24' E 139°44'0 0.1
2018-Apr-11 17:01N 35°24' E 139°44'0 0.0
2018-Apr-11 16:30N 35°24' E 139°44'0 0.0
2018-Apr-11 16:01N 35°24' E 139°44'0 0.0
2018-Apr-11 15:31N 35°24' E 139°44'0 0.0
2018-Apr-11 15:00N 35°24' E 139°44'0 0.0
2018-Apr-11 14:31N 35°24' E 139°44'0 0.0
2018-Apr-11 14:01N 35°24' E 139°44'0 0.1
2018-Apr-11 13:31N 35°24' E 139°44'0 0.0
2018-Apr-11 13:00N 35°24' E 139°44'0 0.0
2018-Apr-11 12:30N 35°24' E 139°44'0 0.1
2018-Apr-11 12:01N 35°24' E 139°44'0 0.0
2018-Apr-11 11:31N 35°24' E 139°44'0 0.0
2018-Apr-11 11:01N 35°24' E 139°44'0 0.0
2018-Apr-11 10:31N 35°24' E 139°44'0 0.0
2018-Apr-11 10:00N 35°24' E 139°44'1 2.2
2018-Apr-11 09:30N 35°25' E 139°45'611.0
2018-Apr-11 09:00N 35°29' E 139°49'5 9.5
2018-Apr-11 08:31N 35°34' E 139°49'3 4.2
2018-Apr-11 07:55N 35°36' E 139°47'0 0.0
2018-Apr-11 07:30N 35°36' E 139°47'0 0.4
2018-Apr-11 06:58N 35°36' E 139°47'4 8.9
2018-Apr-11 06:30N 35°33' E 139°51'3 5.9
2018-Apr-11 06:00N 35°30' E 139°51'5 9.3
2018-Apr-11 05:30N 35°28' E 139°46'4 8.4
2018-Apr-11 05:00N 35°27' E 139°41'0 0.9
2018-Apr-11 04:30N 35°26' E 139°41'0 0.0
2018-Apr-11 04:01N 35°26' E 139°41'0 0.0
2018-Apr-11 03:30N 35°26' E 139°41'0 0.0
2018-Apr-11 03:00N 35°26' E 139°41'0 0.0
2018-Apr-11 02:30N 35°26' E 139°41'0 0.0
2018-Apr-11 02:01N 35°26' E 139°41'1 2.1
2018-Apr-11 01:30N 35°27' E 139°42'4 7.2
2018-Apr-11 01:01N 35°24' E 139°45'0 0.0
2018-Apr-11 00:30N 35°24' E 139°45'0 0.1
2018-Apr-11 00:00N 35°24' E 139°45'0 0.0
2018-Apr-10 23:30N 35°24' E 139°45'0 0.1
2018-Apr-10 23:01N 35°24' E 139°45'0 0.1
2018-Apr-10 22:30N 35°24' E 139°45'0 0.1
2018-Apr-10 22:00N 35°24' E 139°45'0 0.0
2018-Apr-10 21:31N 35°24' E 139°45'0 0.0
2018-Apr-10 21:00N 35°24' E 139°45'0 0.0
2018-Apr-10 20:31N 35°24' E 139°45'0 0.0
2018-Apr-10 20:01N 35°24' E 139°45'0 0.1
2018-Apr-10 19:31N 35°24' E 139°45'3 5.9
2018-Apr-10 19:01N 35°23' E 139°41'1 1.9
2018-Apr-10 18:31N 35°24' E 139°41'0 0.0
2018-Apr-10 18:01N 35°24' E 139°41'0 0.0
2018-Apr-10 17:30N 35°24' E 139°41'0 0.0
2018-Apr-10 17:01N 35°24' E 139°41'0 0.0
2018-Apr-10 16:31N 35°24' E 139°41'0 0.0
2018-Apr-10 16:01N 35°24' E 139°41'0 0.0
2018-Apr-10 15:31N 35°24' E 139°41'0 0.0
2018-Apr-10 15:01N 35°24' E 139°41'0 0.0
2018-Apr-10 14:31N 35°24' E 139°41'0 0.0
2018-Apr-10 14:01N 35°24' E 139°41'0 0.0
2018-Apr-10 13:31N 35°24' E 139°41'0 0.0
2018-Apr-10 13:01N 35°24' E 139°41'0 0.0
2018-Apr-10 12:31N 35°24' E 139°41'0 0.0
2018-Apr-10 12:00N 35°24' E 139°41'2 5.0
2018-Apr-10 11:31N 35°22' E 139°42'611.8
2018-Apr-10 11:00N 35°17' E 139°46'611.5
2018-Apr-10 10:31N 35°11' E 139°46'612.4
2018-Apr-10 10:00N 35°05' E 139°45'1211.1
2018-Apr-10 08:56N 34°53' E 139°47'1110.8
2018-Apr-10 07:58N 34°53' E 139°59'611.9
2018-Apr-10 07:30N 34°56' E 140°05'611.9
2018-Apr-10 07:00N 34°60' E 140°11'  

Dump ship's entire track history